createdAt,value
2023-02-28T00:00:54.548Z,101198.56
2023-02-28T00:03:21.220Z,101192.38
2023-02-28T00:05:47.954Z,101199.19
2023-02-28T00:08:14.796Z,101209.84
2023-02-28T00:10:41.525Z,101210.06
2023-02-28T00:13:08.382Z,101202.50
2023-02-28T00:15:35.493Z,101211.09
2023-02-28T00:18:03.670Z,101214.53
2023-02-28T00:20:30.298Z,101207.16
2023-02-28T00:22:57.216Z,101209.56
2023-02-28T00:25:25.995Z,101215.50
2023-02-28T00:27:52.783Z,101217.13
2023-02-28T00:30:21.479Z,101222.03
2023-02-28T00:32:48.628Z,101218.53
2023-02-28T00:35:15.771Z,101221.38
2023-02-28T00:37:42.618Z,101219.59
2023-02-28T00:40:10.598Z,101219.50
2023-02-28T00:42:37.358Z,101220.63
2023-02-28T00:45:04.797Z,101224.72
2023-02-28T00:47:32.462Z,101225.78
2023-02-28T00:49:59.400Z,101225.53
2023-02-28T00:52:26.433Z,101227.75
2023-02-28T00:54:53.124Z,101223.47
2023-02-28T00:57:22.318Z,101217.06
2023-02-28T00:59:51.727Z,101225.38
2023-02-28T01:02:18.309Z,101225.44
2023-02-28T01:04:44.994Z,101220.13
2023-02-28T01:07:11.676Z,101221.16
2023-02-28T01:09:38.337Z,101232.25
2023-02-28T01:12:05.101Z,101220.97
2023-02-28T01:14:34.292Z,101226.25
2023-02-28T01:17:01.123Z,101230.53
2023-02-28T01:19:27.953Z,101227.84
2023-02-28T01:21:54.533Z,101230.22
2023-02-28T01:24:21.164Z,101224.88
2023-02-28T01:26:47.777Z,101219.63
2023-02-28T01:29:14.435Z,101221.66
2023-02-28T01:31:41.131Z,101227.84
2023-02-28T01:34:08.061Z,101231.88
2023-02-28T01:36:34.791Z,101230.66
2023-02-28T01:39:01.419Z,101233.81
2023-02-28T01:41:31.436Z,101229.13
2023-02-28T01:44:11.314Z,101231.13
2023-02-28T01:46:38.051Z,101234.38
2023-02-28T01:49:13.965Z,101234.63
2023-02-28T01:51:48.203Z,101227.84
2023-02-28T01:54:23.260Z,101226.88
2023-02-28T01:57:14.293Z,101222.22
2023-02-28T02:00:03.716Z,101231.47
2023-02-28T02:02:30.793Z,101226.72
2023-02-28T02:05:11.103Z,101222.78
2023-02-28T02:07:41.437Z,101225.56
2023-02-28T02:10:08.676Z,101225.16
2023-02-28T02:12:49.445Z,101219.81
2023-02-28T02:15:29.816Z,101214.25
2023-02-28T02:18:03.335Z,101224.34
2023-02-28T02:20:57.982Z,101216.13
2023-02-28T02:23:58.198Z,101215.19
2023-02-28T02:26:42.676Z,101215.47
2023-02-28T02:29:33.980Z,101224.22
2023-02-28T02:32:19.561Z,101224.00
2023-02-28T02:35:27.579Z,101220.25
2023-02-28T02:38:05.200Z,101224.38
2023-02-28T02:40:41.691Z,101225.78
2023-02-28T02:43:32.525Z,101216.63
2023-02-28T02:46:33.038Z,101224.41
2023-02-28T02:49:04.747Z,101216.88
2023-02-28T02:51:34.286Z,101219.22
2023-02-28T02:54:16.763Z,101214.09
2023-02-28T02:56:47.560Z,101217.44
2023-02-28T02:59:18.875Z,101214.69
2023-02-28T03:01:45.706Z,101218.41
2023-02-28T03:04:20.628Z,101212.31
2023-02-28T03:06:47.374Z,101215.22
2023-02-28T03:09:14.591Z,101214.59
2023-02-28T03:11:43.024Z,101223.50
2023-02-28T03:14:43.327Z,101230.69
2023-02-28T03:17:36.789Z,101224.31
2023-02-28T03:20:15.489Z,101232.22
2023-02-28T03:22:51.955Z,101236.81
2023-02-28T03:25:33.873Z,101228.22
2023-02-28T03:28:39.678Z,101222.34
2023-02-28T03:31:42.565Z,101219.47
2023-02-28T03:34:35.316Z,101220.63
2023-02-28T03:37:10.312Z,101226.97
2023-02-28T03:40:02.636Z,101229.72
2023-02-28T03:42:33.000Z,101235.00
2023-02-28T03:45:10.390Z,101230.13
2023-02-28T03:47:54.549Z,101230.44
2023-02-28T03:50:42.483Z,101234.47
2023-02-28T03:53:26.588Z,101232.31
2023-02-28T03:56:01.344Z,101236.47
2023-02-28T03:58:43.669Z,101230.44
2023-02-28T04:01:25.320Z,101233.50
2023-02-28T04:03:52.647Z,101227.97
2023-02-28T04:06:21.757Z,101229.41
2023-02-28T04:08:49.244Z,101225.31
2023-02-28T04:11:15.785Z,101214.84
2023-02-28T04:13:42.384Z,101217.34
2023-02-28T04:16:09.046Z,101220.06
2023-02-28T04:18:35.887Z,101213.66
2023-02-28T04:21:02.508Z,101216.75
2023-02-28T04:23:29.300Z,101217.28
2023-02-28T04:25:56.708Z,101218.94
2023-02-28T04:28:23.308Z,101215.50
2023-02-28T04:30:58.653Z,101212.22
2023-02-28T04:33:25.339Z,101217.06
2023-02-28T04:36:04.775Z,101218.13
2023-02-28T04:38:34.830Z,101214.69
2023-02-28T04:41:01.563Z,101220.41
2023-02-28T04:43:29.514Z,101206.84
2023-02-28T04:45:57.389Z,101215.84
2023-02-28T04:48:29.198Z,101215.38
2023-02-28T04:50:56.064Z,101211.41
2023-02-28T04:53:22.965Z,101217.13
2023-02-28T04:55:49.684Z,101209.94
2023-02-28T04:58:16.589Z,101210.66
2023-02-28T05:00:43.294Z,101210.91
2023-02-28T05:03:09.944Z,101212.19
2023-02-28T05:05:36.676Z,101205.69
2023-02-28T05:08:03.381Z,101207.13
2023-02-28T05:10:30.039Z,101205.91
2023-02-28T05:12:56.871Z,101208.81
2023-02-28T05:15:23.759Z,101210.22
2023-02-28T05:17:50.403Z,101213.66
2023-02-28T05:20:17.573Z,101212.00
2023-02-28T05:22:44.977Z,101211.50
2023-02-28T05:25:21.639Z,101215.03
2023-02-28T05:27:48.401Z,101218.63
2023-02-28T05:30:15.082Z,101223.41
2023-02-28T05:32:42.676Z,101226.72
2023-02-28T05:35:12.732Z,101227.13
2023-02-28T05:37:39.823Z,101227.94
2023-02-28T05:40:07.856Z,101229.50
2023-02-28T05:42:34.556Z,101227.19
2023-02-28T05:45:01.354Z,101237.09
2023-02-28T05:47:28.023Z,101236.31
2023-02-28T05:49:54.729Z,101235.00
2023-02-28T05:52:21.327Z,101235.47
2023-02-28T05:54:48.316Z,101238.69
2023-02-28T05:57:23.996Z,101244.91
2023-02-28T05:59:51.551Z,101246.59
2023-02-28T06:02:18.961Z,101244.69
2023-02-28T06:04:45.920Z,101242.44
2023-02-28T06:07:12.918Z,101249.25
2023-02-28T06:09:39.674Z,101249.81
2023-02-28T06:12:07.982Z,101257.06
2023-02-28T06:14:35.642Z,101256.66
2023-02-28T06:17:02.817Z,101251.78
2023-02-28T06:19:30.033Z,101255.81
2023-02-28T06:21:57.901Z,101256.78
2023-02-28T06:24:26.547Z,101251.50
2023-02-28T06:26:53.201Z,101261.97
2023-02-28T06:29:20.182Z,101256.63
2023-02-28T06:31:47.773Z,101260.75
2023-02-28T06:34:14.905Z,101269.22
2023-02-28T06:36:43.237Z,101267.81
2023-02-28T06:39:10.615Z,101264.50
2023-02-28T06:41:53.112Z,101270.94
2023-02-28T06:44:20.704Z,101273.84
2023-02-28T06:46:48.061Z,101267.47
2023-02-28T06:49:14.760Z,101270.22
2023-02-28T06:51:43.121Z,101267.47
2023-02-28T06:54:09.835Z,101272.34
2023-02-28T06:56:37.257Z,101268.00
2023-02-28T06:59:04.592Z,101280.00
2023-02-28T07:01:32.255Z,101277.28
2023-02-28T07:04:00.476Z,101282.34
2023-02-28T07:06:27.698Z,101279.63
2023-02-28T07:08:55.126Z,101284.22
2023-02-28T07:11:24.103Z,101285.97
2023-02-28T07:13:51.302Z,101295.97
2023-02-28T07:16:17.926Z,101295.38
2023-02-28T07:18:44.597Z,101288.31
2023-02-28T07:21:11.699Z,101290.09
2023-02-28T07:23:39.550Z,101290.09
2023-02-28T07:26:07.035Z,101298.63
2023-02-28T07:28:33.984Z,101299.25
2023-02-28T07:31:07.459Z,101299.38
2023-02-28T07:33:34.909Z,101301.03
2023-02-28T07:36:07.565Z,101296.88
2023-02-28T07:38:38.466Z,101298.59
2023-02-28T07:41:05.446Z,101293.22
2023-02-28T07:43:32.990Z,101299.03
2023-02-28T07:46:09.506Z,101304.69
2023-02-28T07:48:36.345Z,101308.63
2023-02-28T07:51:03.595Z,101303.00
2023-02-28T07:56:22.852Z,101307.22
2023-02-28T07:58:49.588Z,101301.03
2023-02-28T08:01:16.481Z,101308.28
2023-02-28T08:03:43.323Z,101304.06
2023-02-28T08:06:23.487Z,101300.56
2023-02-28T08:08:50.284Z,101304.16
2023-02-28T08:11:18.240Z,101301.53
2023-02-28T08:13:45.788Z,101304.00
2023-02-28T08:16:14.403Z,101300.75
2023-02-28T08:18:41.270Z,101312.31
2023-02-28T08:21:09.722Z,101307.84
2023-02-28T08:23:36.948Z,101304.44
2023-02-28T08:26:04.548Z,101306.03
2023-02-28T08:28:31.301Z,101308.63
2023-02-28T08:30:58.130Z,101304.69
2023-02-28T08:33:25.793Z,101302.53
2023-02-28T08:35:56.683Z,101313.13
2023-02-28T08:38:24.311Z,101305.28
2023-02-28T08:40:51.158Z,101299.28
2023-02-28T08:43:17.858Z,101292.88
2023-02-28T08:45:44.587Z,101302.63
2023-02-28T08:48:11.429Z,101298.69
2023-02-28T08:50:38.276Z,101303.53
2023-02-28T08:53:04.915Z,101294.16
2023-02-28T08:55:31.781Z,101298.75
2023-02-28T08:57:58.710Z,101296.47
2023-02-28T09:00:25.667Z,101295.81
2023-02-28T09:02:52.415Z,101298.19
2023-02-28T09:05:19.277Z,101297.44
2023-02-28T09:07:46.230Z,101297.31
2023-02-28T09:10:12.925Z,101296.69
2023-02-28T09:12:39.840Z,101302.38
2023-02-28T09:15:07.304Z,101299.94
2023-02-28T09:17:33.923Z,101300.59
2023-02-28T09:20:00.751Z,101302.31
2023-02-28T09:22:27.450Z,101308.66
2023-02-28T09:24:54.208Z,101301.81
2023-02-28T09:27:20.891Z,101303.53
2023-02-28T09:29:47.939Z,101305.78
2023-02-28T09:32:14.747Z,101299.50
2023-02-28T09:34:41.494Z,101298.44
2023-02-28T09:37:08.698Z,101302.41
2023-02-28T09:39:35.388Z,101303.19
2023-02-28T09:42:04.105Z,101306.13
2023-02-28T09:44:39.842Z,101300.75
2023-02-28T09:47:28.623Z,101305.72
2023-02-28T09:49:59.000Z,101305.22
2023-02-28T09:52:30.640Z,101303.91
2023-02-28T09:55:09.420Z,101298.97
2023-02-28T09:57:40.118Z,101305.00
2023-02-28T10:00:30.433Z,101295.78
2023-02-28T10:03:12.441Z,101300.94
2023-02-28T10:05:44.636Z,101297.44
2023-02-28T10:08:29.356Z,101290.34
2023-02-28T10:10:59.582Z,101281.91
2023-02-28T10:13:37.583Z,101283.00
2023-02-28T10:16:14.170Z,101282.78
2023-02-28T10:18:48.700Z,101277.78
2023-02-28T10:22:07.856Z,101281.63
2023-02-28T10:24:45.346Z,101276.69
2023-02-28T10:27:20.666Z,101272.25
2023-02-28T10:29:53.590Z,101284.97
2023-02-28T10:32:25.204Z,101280.44
2023-02-28T10:35:16.241Z,101283.16
2023-02-28T10:37:47.279Z,101269.97
2023-02-28T10:40:19.930Z,101270.50
2023-02-28T10:43:19.098Z,101255.06
2023-02-28T10:46:12.047Z,101258.56
2023-02-28T10:48:57.421Z,101259.69
2023-02-28T10:51:24.261Z,101251.56
2023-02-28T10:54:00.965Z,101260.13
2023-02-28T10:56:28.845Z,101258.75
2023-02-28T10:59:01.721Z,101257.63
2023-02-28T11:01:31.427Z,101256.69
2023-02-28T11:03:59.175Z,101253.94
2023-02-28T11:06:34.785Z,101251.44
2023-02-28T11:09:05.696Z,101248.78
2023-02-28T11:11:45.345Z,101258.34
2023-02-28T11:14:25.536Z,101260.09
2023-02-28T11:16:53.644Z,101257.94
2023-02-28T11:19:35.378Z,101255.56
2023-02-28T11:22:05.245Z,101250.41
2023-02-28T11:24:31.868Z,101248.88
2023-02-28T11:26:58.637Z,101246.22
2023-02-28T11:29:31.506Z,101244.31
2023-02-28T11:32:13.437Z,101246.03
2023-02-28T11:34:41.677Z,101240.94
2023-02-28T11:37:19.372Z,101242.72
2023-02-28T11:39:46.583Z,101242.94
2023-02-28T11:42:37.375Z,101237.47
2023-02-28T11:45:19.216Z,101231.53
2023-02-28T11:48:02.428Z,101230.56
2023-02-28T11:51:09.350Z,101230.19
2023-02-28T11:53:50.934Z,101228.84
2023-02-28T11:56:26.426Z,101236.38
2023-02-28T11:59:34.774Z,101227.78
2023-02-28T12:02:07.210Z,101223.81
2023-02-28T12:04:58.105Z,101227.41
2023-02-28T12:07:30.732Z,101221.88
2023-02-28T12:10:06.176Z,101221.13
2023-02-28T12:13:13.830Z,101207.84
2023-02-28T12:15:43.723Z,101212.28
2023-02-28T12:18:47.727Z,101206.69
2023-02-28T12:21:31.070Z,101192.69
2023-02-28T12:24:08.548Z,101197.91
2023-02-28T12:26:42.133Z,101197.13
2023-02-28T12:29:18.741Z,101199.94
2023-02-28T12:31:57.058Z,101189.69
2023-02-28T12:34:30.498Z,101189.41
2023-02-28T12:37:01.922Z,101181.44
2023-02-28T12:39:49.472Z,101185.84
2023-02-28T12:42:31.650Z,101187.53
2023-02-28T12:45:14.912Z,101184.19
2023-02-28T12:47:43.868Z,101183.75
2023-02-28T12:50:12.061Z,101183.81
2023-02-28T12:52:43.017Z,101181.25
2023-02-28T12:55:13.658Z,101178.38
2023-02-28T12:57:42.586Z,101177.66
2023-02-28T13:00:24.908Z,101175.81
2023-02-28T13:03:05.826Z,101173.28
2023-02-28T13:05:47.914Z,101171.69
2023-02-28T13:08:49.716Z,101168.81
2023-02-28T13:11:40.667Z,101171.53
2023-02-28T13:14:29.553Z,101166.16
2023-02-28T13:17:00.949Z,101162.72
2023-02-28T13:19:31.131Z,101156.75
2023-02-28T13:21:59.360Z,101168.06
2023-02-28T13:24:46.033Z,101156.81
2023-02-28T13:27:15.779Z,101160.09
2023-02-28T13:29:44.336Z,101158.13
2023-02-28T13:32:10.985Z,101157.44
2023-02-28T13:34:52.932Z,101152.31
2023-02-28T13:37:22.165Z,101155.81
2023-02-28T13:39:51.683Z,101146.88
2023-02-28T13:42:36.699Z,101142.69
2023-02-28T13:45:06.535Z,101137.44
2023-02-28T13:47:54.236Z,101135.66
2023-02-28T13:50:26.946Z,101125.34
2023-02-28T13:53:02.807Z,101134.63
2023-02-28T13:55:48.939Z,101142.72
2023-02-28T13:58:46.732Z,101138.56
2023-02-28T14:01:19.751Z,101134.00
2023-02-28T14:04:04.716Z,101137.69
2023-02-28T14:06:34.064Z,101130.47
2023-02-28T14:09:03.067Z,101134.72
2023-02-28T14:11:48.040Z,101130.41
2023-02-28T14:14:36.829Z,101134.06
2023-02-28T14:17:06.338Z,101128.09
2023-02-28T14:19:35.357Z,101136.72
2023-02-28T14:22:34.455Z,101129.75
2023-02-28T14:25:23.732Z,101132.16
2023-02-28T14:27:50.425Z,101126.19
2023-02-28T14:30:49.082Z,101125.31
2023-02-28T14:33:30.987Z,101122.59
2023-02-28T14:36:21.627Z,101122.41
2023-02-28T14:38:54.300Z,101116.34
2023-02-28T14:41:25.567Z,101119.84
2023-02-28T14:44:02.836Z,101121.28
2023-02-28T14:46:55.654Z,101119.00
2023-02-28T14:49:31.063Z,101118.06
2023-02-28T14:52:16.064Z,101121.56
2023-02-28T14:54:43.406Z,101122.34
2023-02-28T14:57:25.552Z,101126.63
2023-02-28T15:00:28.798Z,101126.06
2023-02-28T15:02:57.342Z,101133.69
2023-02-28T15:05:30.257Z,101139.34
2023-02-28T15:08:07.214Z,101143.97
2023-02-28T15:10:34.729Z,101133.75
2023-02-28T15:13:08.221Z,101137.84
2023-02-28T15:16:01.875Z,101133.59
2023-02-28T15:18:44.548Z,101136.66
2023-02-28T15:21:32.727Z,101143.47
2023-02-28T15:24:02.451Z,101141.88
2023-02-28T15:26:42.507Z,101144.75
2023-02-28T15:29:21.816Z,101135.13
2023-02-28T15:32:08.539Z,101137.44
2023-02-28T15:34:44.003Z,101128.97
2023-02-28T15:37:38.650Z,101132.50
2023-02-28T15:40:19.233Z,101135.16
2023-02-28T15:43:06.237Z,101130.75
2023-02-28T15:45:48.734Z,101130.03
2023-02-28T15:48:19.872Z,101133.66
2023-02-28T15:50:51.546Z,101132.53
2023-02-28T15:53:22.559Z,101132.41
2023-02-28T15:55:55.670Z,101128.06
2023-02-28T15:58:23.575Z,101128.13
2023-02-28T16:01:21.477Z,101125.56
2023-02-28T16:03:52.049Z,101123.03
2023-02-28T16:06:34.001Z,101125.09
2023-02-28T16:09:00.991Z,101128.81
2023-02-28T16:11:28.019Z,101133.19
2023-02-28T16:13:55.162Z,101130.56
2023-02-28T16:16:24.781Z,101127.19
2023-02-28T16:18:52.150Z,101143.69
2023-02-28T16:21:19.092Z,101142.72
2023-02-28T16:23:45.831Z,101143.38
2023-02-28T16:26:22.867Z,101138.34
2023-02-28T16:28:50.923Z,101147.03
2023-02-28T16:31:18.057Z,101149.38
2023-02-28T16:33:46.159Z,101138.53
2023-02-28T16:36:24.394Z,101146.44
2023-02-28T16:38:51.094Z,101146.69
2023-02-28T16:41:22.883Z,101148.66
2023-02-28T16:43:53.173Z,101148.94
2023-02-28T16:46:21.078Z,101154.47
2023-02-28T16:48:48.260Z,101156.41
2023-02-28T16:51:16.835Z,101157.31
2023-02-28T16:53:44.866Z,101161.88
2023-02-28T16:56:17.687Z,101157.94
2023-02-28T16:58:44.735Z,101159.44
2023-02-28T17:01:11.564Z,101171.56
2023-02-28T17:03:38.417Z,101169.94
2023-02-28T17:06:06.298Z,101167.50
2023-02-28T17:08:33.214Z,101165.50
2023-02-28T17:11:00.380Z,101172.34
2023-02-28T17:13:27.039Z,101176.41
2023-02-28T17:15:54.121Z,101179.41
2023-02-28T17:18:21.756Z,101180.84
2023-02-28T17:20:49.475Z,101175.03
2023-02-28T17:23:16.268Z,101180.25
2023-02-28T17:25:42.897Z,101178.59
2023-02-28T17:28:10.050Z,101176.72
2023-02-28T17:30:36.702Z,101178.59
2023-02-28T17:33:03.391Z,101178.44
2023-02-28T17:35:30.298Z,101173.53
2023-02-28T17:37:57.350Z,101180.22
2023-02-28T17:40:24.869Z,101178.41
2023-02-28T17:42:51.947Z,101170.50
2023-02-28T17:45:19.006Z,101175.66
2023-02-28T17:47:48.980Z,101184.38
2023-02-28T17:50:18.959Z,101177.59
2023-02-28T17:52:45.622Z,101185.97
2023-02-28T17:55:12.352Z,101176.56
2023-02-28T17:57:39.201Z,101184.34
2023-02-28T18:00:07.545Z,101183.41
2023-02-28T18:02:34.335Z,101182.03
2023-02-28T18:05:01.090Z,101180.97
2023-02-28T18:07:27.777Z,101187.59
2023-02-28T18:09:54.412Z,101183.31
2023-02-28T18:12:21.140Z,101184.75
2023-02-28T18:14:47.803Z,101186.19
2023-02-28T18:17:14.699Z,101182.25
2023-02-28T18:19:41.567Z,101186.59
2023-02-28T18:22:08.326Z,101190.13
2023-02-28T18:24:35.916Z,101184.94
2023-02-28T18:27:02.989Z,101192.44
2023-02-28T18:29:30.202Z,101188.19
2023-02-28T18:31:57.222Z,101189.88
2023-02-28T18:34:25.249Z,101195.25
2023-02-28T18:36:52.943Z,101190.78
2023-02-28T18:39:20.001Z,101198.34
2023-02-28T18:41:46.817Z,101192.38
2023-02-28T18:44:21.326Z,101193.28
2023-02-28T18:46:49.712Z,101192.03
2023-02-28T18:49:17.522Z,101202.78
2023-02-28T18:51:44.219Z,101196.66
2023-02-28T18:54:11.598Z,101185.63
2023-02-28T18:56:38.304Z,101187.34
2023-02-28T18:59:05.556Z,101193.94
2023-02-28T19:01:32.585Z,101191.84
2023-02-28T19:04:01.248Z,101185.81
2023-02-28T19:06:28.671Z,101192.25
2023-02-28T19:08:57.454Z,101190.59
2023-02-28T19:11:25.483Z,101184.94
2023-02-28T19:13:52.808Z,101176.72
2023-02-28T19:16:22.138Z,101183.03
2023-02-28T19:18:49.326Z,101183.22
2023-02-28T19:21:18.413Z,101189.06
2023-02-28T19:23:45.265Z,101182.81
2023-02-28T19:26:18.088Z,101182.34
2023-02-28T19:28:48.378Z,101186.66
2023-02-28T19:31:18.444Z,101182.34
2023-02-28T19:33:45.287Z,101189.41
2023-02-28T19:36:13.001Z,101184.63
2023-02-28T19:38:41.212Z,101183.84
2023-02-28T19:41:11.177Z,101182.41
2023-02-28T19:43:38.225Z,101184.97
2023-02-28T19:46:05.529Z,101191.09
2023-02-28T19:48:32.523Z,101188.50
2023-02-28T19:51:02.139Z,101185.88
2023-02-28T19:53:34.094Z,101187.59
2023-02-28T19:56:01.246Z,101187.59
2023-02-28T19:58:28.137Z,101196.22
2023-02-28T20:00:54.942Z,101192.03
2023-02-28T20:03:22.203Z,101189.31
2023-02-28T20:06:04.101Z,101186.91
2023-02-28T20:08:30.810Z,101193.38
2023-02-28T20:11:03.858Z,101192.25
2023-02-28T20:13:30.688Z,101193.00
2023-02-28T20:16:06.144Z,101187.63
2023-02-28T20:18:33.970Z,101191.09
2023-02-28T20:21:00.818Z,101189.25
2023-02-28T20:23:27.900Z,101189.97
2023-02-28T20:25:54.876Z,101184.88
2023-02-28T20:28:21.511Z,101182.75
2023-02-28T20:30:48.201Z,101188.09
2023-02-28T20:33:16.793Z,101183.88
2023-02-28T20:35:43.650Z,101181.22
2023-02-28T20:38:11.292Z,101185.22
2023-02-28T20:40:38.237Z,101176.31
2023-02-28T20:43:04.882Z,101179.63
2023-02-28T20:45:31.495Z,101177.84
2023-02-28T20:47:58.191Z,101182.19
2023-02-28T20:50:25.075Z,101180.34
2023-02-28T20:52:51.731Z,101175.97
2023-02-28T20:55:18.632Z,101176.94
2023-02-28T20:57:45.510Z,101178.38
2023-02-28T21:00:13.043Z,101176.63
2023-02-28T21:02:39.719Z,101181.16
2023-02-28T21:05:06.678Z,101177.53
2023-02-28T21:07:33.459Z,101183.63
2023-02-28T21:10:00.169Z,101176.97
2023-02-28T21:12:26.981Z,101173.88
2023-02-28T21:14:53.679Z,101172.03
2023-02-28T21:17:20.319Z,101173.03
2023-02-28T21:19:46.911Z,101179.22
2023-02-28T21:22:13.861Z,101179.28
2023-02-28T21:24:40.475Z,101177.56
2023-02-28T21:27:07.318Z,101183.53
2023-02-28T21:29:34.047Z,101182.56
2023-02-28T21:32:00.705Z,101174.00
2023-02-28T21:34:27.607Z,101166.19
2023-02-28T21:36:54.244Z,101168.72
2023-02-28T21:39:23.840Z,101173.03
2023-02-28T21:41:50.448Z,101174.72
2023-02-28T21:44:17.169Z,101179.19
2023-02-28T21:46:46.195Z,101178.19
2023-02-28T21:49:13.492Z,101172.91
2023-02-28T21:51:40.439Z,101171.34
2023-02-28T21:54:07.147Z,101169.63
2023-02-28T21:56:34.704Z,101168.78
2023-02-28T21:59:03.219Z,101165.09
2023-02-28T22:01:32.857Z,101167.72
2023-02-28T22:04:00.376Z,101162.69
2023-02-28T22:06:32.806Z,101166.97
2023-02-28T22:09:01.993Z,101168.75
2023-02-28T22:11:29.101Z,101167.81
2023-02-28T22:13:57.292Z,101170.66
2023-02-28T22:16:26.529Z,101173.03
2023-02-28T22:18:54.089Z,101171.22
2023-02-28T22:21:22.064Z,101177.69
2023-02-28T22:23:49.459Z,101173.56
2023-02-28T22:26:18.866Z,101171.63
2023-02-28T22:28:46.270Z,101175.97
2023-02-28T22:31:13.056Z,101171.72
2023-02-28T22:33:39.786Z,101168.06
2023-02-28T22:36:06.906Z,101172.97
2023-02-28T22:38:34.442Z,101176.38
2023-02-28T22:41:02.032Z,101179.22
2023-02-28T22:43:28.946Z,101182.66
2023-02-28T22:45:55.563Z,101180.06
2023-02-28T22:48:22.218Z,101173.22
2023-02-28T22:50:48.916Z,101174.91
2023-02-28T22:53:15.498Z,101181.84
2023-02-28T22:55:42.158Z,101184.53
2023-02-28T22:58:08.875Z,101183.78
2023-02-28T23:00:35.572Z,101183.50
2023-02-28T23:03:02.302Z,101178.28
2023-02-28T23:05:30.516Z,101183.09
2023-02-28T23:07:57.201Z,101172.34
2023-02-28T23:10:23.844Z,101172.09
2023-02-28T23:12:50.451Z,101172.06
2023-02-28T23:15:18.558Z,101169.41
2023-02-28T23:17:46.419Z,101173.78
2023-02-28T23:20:20.335Z,101179.06
2023-02-28T23:22:47.043Z,101170.38
2023-02-28T23:25:14.267Z,101170.31
2023-02-28T23:27:41.212Z,101166.03
2023-02-28T23:30:08.991Z,101166.88
2023-02-28T23:32:35.796Z,101164.41
2023-02-28T23:35:02.681Z,101158.28
2023-02-28T23:37:29.295Z,101162.13
2023-02-28T23:39:55.995Z,101156.19
2023-02-28T23:42:22.810Z,101151.66
2023-02-28T23:44:49.532Z,101151.66
2023-02-28T23:47:16.182Z,101147.66
2023-02-28T23:49:42.899Z,101166.66
2023-02-28T23:52:10.317Z,101157.88
2023-02-28T23:54:37.024Z,101157.03
2023-02-28T23:57:03.667Z,101159.66
2023-02-28T23:59:30.499Z,101164.69
